sensor_id;sensor_type;location;lat;lon;timestamp;P1;durP1;ratioP1;P2;durP2;ratioP2
64615;SDS011;51027;42.162;24.754;2024-03-02T04:33:59;35.47;;;15.52;;
64615;SDS011;51027;42.162;24.754;2024-03-02T04:36:24;37.80;;;16.30;;
64615;SDS011;51027;42.162;24.754;2024-03-02T04:38:50;30.48;;;12.65;;
64615;SDS011;51027;42.162;24.754;2024-03-02T04:41:15;39.80;;;15.50;;
64615;SDS011;51027;42.162;24.754;2024-03-02T04:43:41;38.20;;;15.07;;
64615;SDS011;51027;42.162;24.754;2024-03-02T04:46:06;35.60;;;15.23;;
64615;SDS011;51027;42.162;24.754;2024-03-02T04:48:32;34.50;;;14.88;;
64615;SDS011;51027;42.162;24.754;2024-03-02T04:50:58;36.50;;;15.35;;
64615;SDS011;51027;42.162;24.754;2024-03-02T04:53:23;36.75;;;13.98;;
64615;SDS011;51027;42.162;24.754;2024-03-02T04:55:48;33.83;;;14.85;;
64615;SDS011;51027;42.162;24.754;2024-03-02T04:58:20;31.90;;;13.27;;
64615;SDS011;51027;42.162;24.754;2024-03-02T05:00:45;34.00;;;13.85;;
64615;SDS011;51027;42.162;24.754;2024-03-02T05:03:11;33.00;;;14.13;;
64615;SDS011;51027;42.162;24.754;2024-03-02T05:05:37;29.85;;;12.85;;
64615;SDS011;51027;42.162;24.754;2024-03-02T05:08:03;35.47;;;14.48;;
64615;SDS011;51027;42.162;24.754;2024-03-02T05:10:29;30.35;;;12.77;;
64615;SDS011;51027;42.162;24.754;2024-03-02T05:12:54;37.20;;;14.57;;
64615;SDS011;51027;42.162;24.754;2024-03-02T05:15:24;38.75;;;13.65;;
64615;SDS011;51027;42.162;24.754;2024-03-02T05:17:50;35.70;;;14.43;;
64615;SDS011;51027;42.162;24.754;2024-03-02T05:20:16;34.05;;;14.02;;
64615;SDS011;51027;42.162;24.754;2024-03-02T05:22:42;33.53;;;13.40;;
64615;SDS011;51027;42.162;24.754;2024-03-02T05:25:07;36.92;;;14.00;;
64615;SDS011;51027;42.162;24.754;2024-03-02T05:27:35;25.65;;;9.93;;
64615;SDS011;51027;42.162;24.754;2024-03-02T05:30:01;30.25;;;13.38;;
64615;SDS011;51027;42.162;24.754;2024-03-02T05:32:26;35.75;;;13.48;;
64615;SDS011;51027;42.162;24.754;2024-03-02T05:34:52;33.60;;;13.52;;
64615;SDS011;51027;42.162;24.754;2024-03-02T05:37:18;31.33;;;13.88;;
64615;SDS011;51027;42.162;24.754;2024-03-02T05:39:43;30.55;;;13.00;;
64615;SDS011;51027;42.162;24.754;2024-03-02T05:42:09;32.58;;;13.98;;
64615;SDS011;51027;42.162;24.754;2024-03-02T05:44:35;36.05;;;14.93;;
64615;SDS011;51027;42.162;24.754;2024-03-02T05:47:01;33.55;;;13.32;;
64615;SDS011;51027;42.162;24.754;2024-03-02T05:49:26;32.80;;;13.35;;
64615;SDS011;51027;42.162;24.754;2024-03-02T05:51:51;36.03;;;15.25;;
64615;SDS011;51027;42.162;24.754;2024-03-02T05:54:17;37.30;;;13.68;;
64615;SDS011;51027;42.162;24.754;2024-03-02T05:56:43;36.10;;;14.57;;
64615;SDS011;51027;42.162;24.754;2024-03-02T05:59:08;35.67;;;13.95;;
64615;SDS011;51027;42.162;24.754;2024-03-02T06:01:42;32.53;;;13.85;;
64615;SDS011;51027;42.162;24.754;2024-03-02T06:04:09;28.52;;;12.57;;
64615;SDS011;51027;42.162;24.754;2024-03-02T06:06:36;31.70;;;12.48;;
64615;SDS011;51027;42.162;24.754;2024-03-02T06:09:01;30.40;;;13.38;;
64615;SDS011;51027;42.162;24.754;2024-03-02T06:11:32;31.23;;;13.02;;
64615;SDS011;51027;42.162;24.754;2024-03-02T06:13:58;31.48;;;12.02;;
64615;SDS011;51027;42.162;24.754;2024-03-02T06:16:24;30.20;;;11.70;;
64615;SDS011;51027;42.162;24.754;2024-03-02T06:18:49;28.77;;;12.60;;
64615;SDS011;51027;42.162;24.754;2024-03-02T06:21:15;30.27;;;11.32;;
64615;SDS011;51027;42.162;24.754;2024-03-02T06:23:40;30.60;;;11.70;;
64615;SDS011;51027;42.162;24.754;2024-03-02T06:26:05;29.58;;;11.80;;
64615;SDS011;51027;42.162;24.754;2024-03-02T06:28:31;26.73;;;10.98;;
64615;SDS011;51027;42.162;24.754;2024-03-02T06:30:56;29.52;;;10.65;;
64615;SDS011;51027;42.162;24.754;2024-03-02T06:33:22;27.27;;;10.68;;
64615;SDS011;51027;42.162;24.754;2024-03-02T06:35:47;29.52;;;12.07;;
64615;SDS011;51027;42.162;24.754;2024-03-02T06:38:14;26.00;;;12.00;;
64615;SDS011;51027;42.162;24.754;2024-03-02T06:40:39;27.40;;;11.90;;
64615;SDS011;51027;42.162;24.754;2024-03-02T06:43:05;27.60;;;10.88;;
64615;SDS011;51027;42.162;24.754;2024-03-02T06:45:31;26.90;;;11.63;;
64615;SDS011;51027;42.162;24.754;2024-03-02T06:47:56;26.42;;;11.40;;
64615;SDS011;51027;42.162;24.754;2024-03-02T06:50:22;26.40;;;10.95;;
64615;SDS011;51027;42.162;24.754;2024-03-02T06:52:47;26.80;;;9.93;;
64615;SDS011;51027;42.162;24.754;2024-03-02T06:55:13;26.73;;;11.45;;
64615;SDS011;51027;42.162;24.754;2024-03-02T06:57:38;26.17;;;10.90;;
64615;SDS011;51027;42.162;24.754;2024-03-02T07:00:03;16.25;;;5.78;;
64615;SDS011;51027;42.162;24.754;2024-03-02T07:02:30;26.52;;;11.90;;
64615;SDS011;51027;42.162;24.754;2024-03-02T07:04:55;25.33;;;10.65;;
64615;SDS011;51027;42.162;24.754;2024-03-02T07:07:21;23.23;;;9.85;;
64615;SDS011;51027;42.162;24.754;2024-03-02T07:09:46;25.63;;;10.48;;
64615;SDS011;51027;42.162;24.754;2024-03-02T07:12:12;23.95;;;10.63;;
64615;SDS011;51027;42.162;24.754;2024-03-02T07:14:38;26.15;;;11.07;;
64615;SDS011;51027;42.162;24.754;2024-03-02T07:17:33;24.98;;;10.07;;
64615;SDS011;51027;42.162;24.754;2024-03-02T07:19:58;26.05;;;10.98;;
64615;SDS011;51027;42.162;24.754;2024-03-02T07:22:24;28.40;;;11.93;;
64615;SDS011;51027;42.162;24.754;2024-03-02T07:24:50;28.50;;;11.25;;
64615;SDS011;51027;42.162;24.754;2024-03-02T07:27:15;26.67;;;10.93;;
64615;SDS011;51027;42.162;24.754;2024-03-02T07:29:42;26.92;;;12.70;;
64615;SDS011;51027;42.162;24.754;2024-03-02T07:32:08;26.10;;;11.90;;
64615;SDS011;51027;42.162;24.754;2024-03-02T07:34:35;26.60;;;12.10;;
64615;SDS011;51027;42.162;24.754;2024-03-02T07:37:01;27.30;;;11.25;;
64615;SDS011;51027;42.162;24.754;2024-03-02T07:39:27;25.58;;;12.25;;
64615;SDS011;51027;42.162;24.754;2024-03-02T07:41:52;26.65;;;11.90;;
64615;SDS011;51027;42.162;24.754;2024-03-02T07:44:18;29.77;;;12.35;;
64615;SDS011;51027;42.162;24.754;2024-03-02T07:46:47;30.15;;;13.13;;
64615;SDS011;51027;42.162;24.754;2024-03-02T07:49:14;29.02;;;13.20;;
64615;SDS011;51027;42.162;24.754;2024-03-02T07:51:40;28.92;;;13.25;;
64615;SDS011;51027;42.162;24.754;2024-03-02T07:54:06;28.48;;;12.73;;
64615;SDS011;51027;42.162;24.754;2024-03-02T07:56:31;29.42;;;13.85;;
64615;SDS011;51027;42.162;24.754;2024-03-02T07:58:57;31.15;;;13.65;;
64615;SDS011;51027;42.162;24.754;2024-03-02T08:01:26;33.42;;;16.33;;
64615;SDS011;51027;42.162;24.754;2024-03-02T08:03:52;30.38;;;14.18;;
64615;SDS011;51027;42.162;24.754;2024-03-02T08:06:18;31.52;;;13.98;;
64615;SDS011;51027;42.162;24.754;2024-03-02T08:08:46;27.55;;;13.77;;
64615;SDS011;51027;42.162;24.754;2024-03-02T08:11:11;30.77;;;13.77;;
64615;SDS011;51027;42.162;24.754;2024-03-02T08:13:37;29.58;;;13.68;;
64615;SDS011;51027;42.162;24.754;2024-03-02T08:16:03;29.95;;;14.20;;
64615;SDS011;51027;42.162;24.754;2024-03-02T08:18:31;29.15;;;13.40;;
64615;SDS011;51027;42.162;24.754;2024-03-02T08:20:57;26.98;;;12.05;;
64615;SDS011;51027;42.162;24.754;2024-03-02T08:23:22;28.30;;;12.77;;
64615;SDS011;51027;42.162;24.754;2024-03-02T08:25:48;27.30;;;11.90;;
64615;SDS011;51027;42.162;24.754;2024-03-02T08:28:13;28.85;;;12.95;;
64615;SDS011;51027;42.162;24.754;2024-03-02T08:30:39;29.85;;;13.82;;
64615;SDS011;51027;42.162;24.754;2024-03-02T08:33:04;29.05;;;14.25;;
64615;SDS011;51027;42.162;24.754;2024-03-02T08:35:30;31.88;;;15.10;;
64615;SDS011;51027;42.162;24.754;2024-03-02T08:40:26;29.10;;;13.55;;
64615;SDS011;51027;42.162;24.754;2024-03-02T08:42:51;29.48;;;13.05;;
64615;SDS011;51027;42.162;24.754;2024-03-02T08:45:17;29.50;;;12.98;;
64615;SDS011;51027;42.162;24.754;2024-03-02T08:47:45;27.20;;;11.15;;
64615;SDS011;51027;42.162;24.754;2024-03-02T08:50:10;26.88;;;11.52;;
64615;SDS011;51027;42.162;24.754;2024-03-02T08:52:36;28.48;;;13.15;;
64615;SDS011;51027;42.162;24.754;2024-03-02T08:55:01;28.77;;;12.05;;
64615;SDS011;51027;42.162;24.754;2024-03-02T08:57:27;28.70;;;11.73;;
64615;SDS011;51027;42.162;24.754;2024-03-02T08:59:52;28.77;;;11.05;;
64615;SDS011;51027;42.162;24.754;2024-03-02T09:02:18;28.38;;;12.43;;
64615;SDS011;51027;42.162;24.754;2024-03-02T09:04:43;28.88;;;11.57;;
64615;SDS011;51027;42.162;24.754;2024-03-02T09:07:09;29.52;;;11.43;;
64615;SDS011;51027;42.162;24.754;2024-03-02T09:09:34;29.33;;;11.98;;
64615;SDS011;51027;42.162;24.754;2024-03-02T09:12:00;26.25;;;11.73;;
64615;SDS011;51027;42.162;24.754;2024-03-02T09:14:25;28.55;;;12.57;;
64615;SDS011;51027;42.162;24.754;2024-03-02T09:16:51;31.38;;;12.80;;
64615;SDS011;51027;42.162;24.754;2024-03-02T09:19:16;31.85;;;12.77;;
64615;SDS011;51027;42.162;24.754;2024-03-02T09:21:42;27.85;;;12.23;;
64615;SDS011;51027;42.162;24.754;2024-03-02T09:24:08;29.48;;;13.18;;
64615;SDS011;51027;42.162;24.754;2024-03-02T09:26:35;29.75;;;12.43;;
64615;SDS011;51027;42.162;24.754;2024-03-02T09:29:00;28.85;;;11.85;;
64615;SDS011;51027;42.162;24.754;2024-03-02T09:31:26;37.13;;;13.70;;
64615;SDS011;51027;42.162;24.754;2024-03-02T09:33:51;31.50;;;14.43;;
64615;SDS011;51027;42.162;24.754;2024-03-02T09:36:21;34.20;;;13.38;;
64615;SDS011;51027;42.162;24.754;2024-03-02T09:38:47;37.53;;;15.55;;
64615;SDS011;51027;42.162;24.754;2024-03-02T09:41:13;33.90;;;14.57;;
64615;SDS011;51027;42.162;24.754;2024-03-02T09:43:39;31.58;;;14.80;;
64615;SDS011;51027;42.162;24.754;2024-03-02T09:46:06;34.50;;;15.57;;
64615;SDS011;51027;42.162;24.754;2024-03-02T09:48:33;33.25;;;14.48;;
64615;SDS011;51027;42.162;24.754;2024-03-02T09:50:59;29.95;;;14.93;;
64615;SDS011;51027;42.162;24.754;2024-03-02T09:53:28;33.97;;;13.57;;
64615;SDS011;51027;42.162;24.754;2024-03-02T09:55:56;31.10;;;14.07;;
64615;SDS011;51027;42.162;24.754;2024-03-02T09:58:22;35.38;;;16.48;;
64615;SDS011;51027;42.162;24.754;2024-03-02T10:00:47;33.20;;;14.25;;
64615;SDS011;51027;42.162;24.754;2024-03-02T10:03:14;30.05;;;14.05;;
64615;SDS011;51027;42.162;24.754;2024-03-02T10:05:40;31.02;;;13.93;;
64615;SDS011;51027;42.162;24.754;2024-03-02T10:08:05;36.00;;;14.77;;
64615;SDS011;51027;42.162;24.754;2024-03-02T10:10:38;33.67;;;13.43;;
64615;SDS011;51027;42.162;24.754;2024-03-02T10:13:05;31.10;;;13.27;;
64615;SDS011;51027;42.162;24.754;2024-03-02T10:15:36;31.90;;;13.00;;
64615;SDS011;51027;42.162;24.754;2024-03-02T10:18:05;31.83;;;13.40;;
64615;SDS011;51027;42.162;24.754;2024-03-02T10:20:34;32.63;;;13.30;;
64615;SDS011;51027;42.162;24.754;2024-03-02T10:23:13;31.98;;;14.25;;
64615;SDS011;51027;42.162;24.754;2024-03-02T10:25:40;33.00;;;14.50;;
64615;SDS011;51027;42.162;24.754;2024-03-02T10:28:06;27.35;;;13.15;;
64615;SDS011;51027;42.162;24.754;2024-03-02T10:30:34;30.77;;;14.80;;
64615;SDS011;51027;42.162;24.754;2024-03-02T10:33:01;30.70;;;13.73;;
64615;SDS011;51027;42.162;24.754;2024-03-02T10:35:27;31.10;;;13.35;;
64615;SDS011;51027;42.162;24.754;2024-03-02T10:37:53;31.20;;;13.25;;
64615;SDS011;51027;42.162;24.754;2024-03-02T10:40:21;31.10;;;13.00;;
64615;SDS011;51027;42.162;24.754;2024-03-02T10:42:48;32.97;;;14.45;;
64615;SDS011;51027;42.162;24.754;2024-03-02T10:45:16;32.50;;;14.75;;
64615;SDS011;51027;42.162;24.754;2024-03-02T10:47:45;33.75;;;13.88;;
64615;SDS011;51027;42.162;24.754;2024-03-02T10:50:12;29.58;;;15.02;;
64615;SDS011;51027;42.162;24.754;2024-03-02T10:52:37;38.65;;;15.57;;
64615;SDS011;51027;42.162;24.754;2024-03-02T10:57:53;32.25;;;13.88;;
64615;SDS011;51027;42.162;24.754;2024-03-02T11:00:21;35.40;;;15.15;;
64615;SDS011;51027;42.162;24.754;2024-03-02T11:02:52;37.88;;;15.35;;
64615;SDS011;51027;42.162;24.754;2024-03-02T11:07:57;36.60;;;15.63;;
64615;SDS011;51027;42.162;24.754;2024-03-02T11:10:27;38.47;;;16.38;;
64615;SDS011;51027;42.162;24.754;2024-03-02T11:13:02;38.80;;;17.73;;
64615;SDS011;51027;42.162;24.754;2024-03-02T11:15:30;41.25;;;16.80;;
64615;SDS011;51027;42.162;24.754;2024-03-02T11:17:57;41.20;;;18.08;;
64615;SDS011;51027;42.162;24.754;2024-03-02T11:20:23;42.67;;;18.10;;
64615;SDS011;51027;42.162;24.754;2024-03-02T11:22:49;36.10;;;15.57;;
64615;SDS011;51027;42.162;24.754;2024-03-02T11:25:22;41.35;;;16.70;;
64615;SDS011;51027;42.162;24.754;2024-03-02T11:32:59;39.83;;;17.52;;
64615;SDS011;51027;42.162;24.754;2024-03-02T11:35:25;36.50;;;15.90;;
64615;SDS011;51027;42.162;24.754;2024-03-02T11:37:53;37.45;;;16.60;;
64615;SDS011;51027;42.162;24.754;2024-03-02T11:40:22;34.88;;;16.30;;
64615;SDS011;51027;42.162;24.754;2024-03-02T11:42:49;34.95;;;16.77;;
64615;SDS011;51027;42.162;24.754;2024-03-02T11:45:17;37.63;;;17.33;;
64615;SDS011;51027;42.162;24.754;2024-03-02T11:47:50;37.55;;;16.95;;
64615;SDS011;51027;42.162;24.754;2024-03-02T11:50:29;38.58;;;17.90;;
64615;SDS011;51027;42.162;24.754;2024-03-02T11:52:55;33.97;;;15.68;;
64615;SDS011;51027;42.162;24.754;2024-03-02T11:55:23;36.80;;;16.73;;
64615;SDS011;51027;42.162;24.754;2024-03-02T11:57:51;37.95;;;16.83;;
64615;SDS011;51027;42.162;24.754;2024-03-02T12:00:17;37.47;;;17.40;;
64615;SDS011;51027;42.162;24.754;2024-03-02T12:02:44;39.95;;;18.70;;
64615;SDS011;51027;42.162;24.754;2024-03-02T12:05:14;34.53;;;16.15;;
64615;SDS011;51027;42.162;24.754;2024-03-02T12:07:41;35.05;;;16.60;;
64615;SDS011;51027;42.162;24.754;2024-03-02T12:10:08;30.40;;;15.45;;
64615;SDS011;51027;42.162;24.754;2024-03-02T12:12:34;32.40;;;15.00;;
64615;SDS011;51027;42.162;24.754;2024-03-02T12:14:59;34.97;;;15.50;;
64615;SDS011;51027;42.162;24.754;2024-03-02T12:17:25;27.63;;;14.68;;
64615;SDS011;51027;42.162;24.754;2024-03-02T12:19:51;30.95;;;14.98;;
64615;SDS011;51027;42.162;24.754;2024-03-02T12:22:18;32.75;;;15.48;;
64615;SDS011;51027;42.162;24.754;2024-03-02T12:24:44;30.05;;;14.57;;
64615;SDS011;51027;42.162;24.754;2024-03-02T12:27:13;34.53;;;15.57;;
64615;SDS011;51027;42.162;24.754;2024-03-02T12:29:40;31.65;;;14.77;;
64615;SDS011;51027;42.162;24.754;2024-03-02T12:32:06;29.77;;;15.35;;
64615;SDS011;51027;42.162;24.754;2024-03-02T12:34:31;29.42;;;14.65;;
64615;SDS011;51027;42.162;24.754;2024-03-02T12:36:57;30.00;;;16.00;;
64615;SDS011;51027;42.162;24.754;2024-03-02T12:39:23;31.20;;;16.33;;
64615;SDS011;51027;42.162;24.754;2024-03-02T12:41:49;32.17;;;16.77;;
64615;SDS011;51027;42.162;24.754;2024-03-02T12:44:16;32.60;;;15.68;;
64615;SDS011;51027;42.162;24.754;2024-03-02T12:46:44;35.50;;;16.65;;
64615;SDS011;51027;42.162;24.754;2024-03-02T12:49:14;35.47;;;17.27;;
64615;SDS011;51027;42.162;24.754;2024-03-02T12:51:41;30.75;;;15.25;;
64615;SDS011;51027;42.162;24.754;2024-03-02T12:54:07;31.55;;;15.75;;
64615;SDS011;51027;42.162;24.754;2024-03-02T12:56:34;30.92;;;14.55;;
64615;SDS011;51027;42.162;24.754;2024-03-02T12:59:00;31.08;;;16.33;;
64615;SDS011;51027;42.162;24.754;2024-03-02T13:01:26;32.17;;;17.20;;
64615;SDS011;51027;42.162;24.754;2024-03-02T13:03:52;33.92;;;16.20;;
64615;SDS011;51027;42.162;24.754;2024-03-02T13:06:20;31.50;;;16.05;;
64615;SDS011;51027;42.162;24.754;2024-03-02T13:08:46;35.70;;;15.82;;
64615;SDS011;51027;42.162;24.754;2024-03-02T13:11:12;27.88;;;13.88;;
64615;SDS011;51027;42.162;24.754;2024-03-02T13:13:38;31.13;;;14.48;;
64615;SDS011;51027;42.162;24.754;2024-03-02T13:16:07;29.95;;;15.90;;
64615;SDS011;51027;42.162;24.754;2024-03-02T13:18:40;29.63;;;14.60;;
64615;SDS011;51027;42.162;24.754;2024-03-02T13:21:07;31.10;;;15.57;;
64615;SDS011;51027;42.162;24.754;2024-03-02T13:23:33;31.98;;;14.85;;
64615;SDS011;51027;42.162;24.754;2024-03-02T13:25:59;29.60;;;14.23;;
64615;SDS011;51027;42.162;24.754;2024-03-02T13:28:25;29.75;;;15.20;;
64615;SDS011;51027;42.162;24.754;2024-03-02T13:30:50;35.88;;;17.65;;
64615;SDS011;51027;42.162;24.754;2024-03-02T13:33:16;38.83;;;19.25;;
64615;SDS011;51027;42.162;24.754;2024-03-02T13:35:44;39.15;;;18.33;;
64615;SDS011;51027;42.162;24.754;2024-03-02T13:38:10;38.67;;;19.45;;
64615;SDS011;51027;42.162;24.754;2024-03-02T13:40:35;35.65;;;17.73;;
64615;SDS011;51027;42.162;24.754;2024-03-02T13:43:01;29.75;;;16.83;;
64615;SDS011;51027;42.162;24.754;2024-03-02T13:45:27;35.13;;;18.00;;
64615;SDS011;51027;42.162;24.754;2024-03-02T13:47:53;33.33;;;17.83;;
64615;SDS011;51027;42.162;24.754;2024-03-02T13:50:19;31.98;;;15.75;;
64615;SDS011;51027;42.162;24.754;2024-03-02T13:52:45;31.98;;;15.80;;
64615;SDS011;51027;42.162;24.754;2024-03-02T13:55:10;34.20;;;16.70;;
64615;SDS011;51027;42.162;24.754;2024-03-02T13:57:35;28.08;;;13.88;;
64615;SDS011;51027;42.162;24.754;2024-03-02T14:00:01;30.25;;;14.30;;
64615;SDS011;51027;42.162;24.754;2024-03-02T14:02:28;30.27;;;14.73;;
64615;SDS011;51027;42.162;24.754;2024-03-02T14:04:53;30.05;;;14.20;;
64615;SDS011;51027;42.162;24.754;2024-03-02T14:07:19;33.65;;;15.85;;
64615;SDS011;51027;42.162;24.754;2024-03-02T14:09:44;28.92;;;14.98;;
64615;SDS011;51027;42.162;24.754;2024-03-02T14:12:10;32.50;;;15.50;;
64615;SDS011;51027;42.162;24.754;2024-03-02T14:14:38;28.02;;;13.93;;
64615;SDS011;51027;42.162;24.754;2024-03-02T14:17:03;32.22;;;16.25;;
64615;SDS011;51027;42.162;24.754;2024-03-02T14:19:31;32.90;;;17.08;;
64615;SDS011;51027;42.162;24.754;2024-03-02T14:21:57;36.17;;;17.75;;
64615;SDS011;51027;42.162;24.754;2024-03-02T14:24:22;34.92;;;17.52;;
64615;SDS011;51027;42.162;24.754;2024-03-02T14:26:50;29.23;;;14.45;;
64615;SDS011;51027;42.162;24.754;2024-03-02T14:29:16;28.73;;;15.65;;
64615;SDS011;51027;42.162;24.754;2024-03-02T14:31:43;29.05;;;13.73;;
64615;SDS011;51027;42.162;24.754;2024-03-02T14:34:08;27.50;;;12.68;;
64615;SDS011;51027;42.162;24.754;2024-03-02T14:36:34;26.48;;;12.48;;
64615;SDS011;51027;42.162;24.754;2024-03-02T14:38:59;24.05;;;10.93;;
64615;SDS011;51027;42.162;24.754;2024-03-02T14:41:25;26.90;;;12.98;;
64615;SDS011;51027;42.162;24.754;2024-03-02T14:43:50;27.88;;;13.80;;
64615;SDS011;51027;42.162;24.754;2024-03-02T14:46:16;34.50;;;18.17;;
64615;SDS011;51027;42.162;24.754;2024-03-02T14:48:42;26.65;;;12.85;;
64615;SDS011;51027;42.162;24.754;2024-03-02T14:51:09;20.25;;;9.45;;
64615;SDS011;51027;42.162;24.754;2024-03-02T14:53:35;27.73;;;13.68;;
64615;SDS011;51027;42.162;24.754;2024-03-02T14:56:01;29.38;;;14.57;;
64615;SDS011;51027;42.162;24.754;2024-03-02T14:58:27;30.88;;;14.65;;
64615;SDS011;51027;42.162;24.754;2024-03-02T15:00:52;25.65;;;13.07;;
64615;SDS011;51027;42.162;24.754;2024-03-02T15:03:18;25.23;;;10.85;;
64615;SDS011;51027;42.162;24.754;2024-03-02T15:05:44;26.02;;;11.63;;
64615;SDS011;51027;42.162;24.754;2024-03-02T15:08:10;26.20;;;11.63;;
64615;SDS011;51027;42.162;24.754;2024-03-02T15:10:36;23.30;;;11.63;;
64615;SDS011;51027;42.162;24.754;2024-03-02T15:13:01;25.00;;;12.45;;
64615;SDS011;51027;42.162;24.754;2024-03-02T15:15:28;26.10;;;12.13;;
64615;SDS011;51027;42.162;24.754;2024-03-02T15:17:53;25.42;;;11.20;;
64615;SDS011;51027;42.162;24.754;2024-03-02T15:20:18;27.15;;;13.05;;
64615;SDS011;51027;42.162;24.754;2024-03-02T15:22:46;28.00;;;13.02;;
64615;SDS011;51027;42.162;24.754;2024-03-02T15:25:12;26.90;;;12.73;;
64615;SDS011;51027;42.162;24.754;2024-03-02T15:27:38;25.38;;;11.70;;
64615;SDS011;51027;42.162;24.754;2024-03-02T15:30:03;23.55;;;11.43;;
64615;SDS011;51027;42.162;24.754;2024-03-02T15:32:29;26.02;;;12.55;;
64615;SDS011;51027;42.162;24.754;2024-03-02T15:34:55;24.52;;;11.35;;
64615;SDS011;51027;42.162;24.754;2024-03-02T15:37:20;23.30;;;11.15;;
64615;SDS011;51027;42.162;24.754;2024-03-02T15:39:46;22.70;;;10.90;;
64615;SDS011;51027;42.162;24.754;2024-03-02T15:42:11;24.48;;;10.98;;
64615;SDS011;51027;42.162;24.754;2024-03-02T15:44:37;23.45;;;10.45;;
64615;SDS011;51027;42.162;24.754;2024-03-02T15:47:03;20.80;;;10.02;;
64615;SDS011;51027;42.162;24.754;2024-03-02T15:49:29;21.27;;;9.80;;
64615;SDS011;51027;42.162;24.754;2024-03-02T15:51:57;25.27;;;11.07;;
64615;SDS011;51027;42.162;24.754;2024-03-02T15:54:25;22.88;;;12.05;;
64615;SDS011;51027;42.162;24.754;2024-03-02T15:56:51;28.90;;;14.27;;
64615;SDS011;51027;42.162;24.754;2024-03-02T15:59:16;29.23;;;15.15;;
64615;SDS011;51027;42.162;24.754;2024-03-02T16:01:42;27.50;;;14.48;;
64615;SDS011;51027;42.162;24.754;2024-03-02T16:04:08;29.25;;;15.30;;
64615;SDS011;51027;42.162;24.754;2024-03-02T16:06:34;28.60;;;13.70;;
64615;SDS011;51027;42.162;24.754;2024-03-02T16:08:59;25.05;;;13.05;;
64615;SDS011;51027;42.162;24.754;2024-03-02T16:11:25;26.55;;;12.70;;
64615;SDS011;51027;42.162;24.754;2024-03-02T16:13:51;25.33;;;12.40;;
64615;SDS011;51027;42.162;24.754;2024-03-02T16:16:16;27.50;;;13.40;;
64615;SDS011;51027;42.162;24.754;2024-03-02T16:18:42;27.90;;;12.52;;
64615;SDS011;51027;42.162;24.754;2024-03-02T16:21:08;26.42;;;12.73;;
64615;SDS011;51027;42.162;24.754;2024-03-02T16:23:34;26.63;;;12.82;;
64615;SDS011;51027;42.162;24.754;2024-03-02T16:25:59;28.42;;;14.13;;
64615;SDS011;51027;42.162;24.754;2024-03-02T16:28:25;29.30;;;15.13;;
64615;SDS011;51027;42.162;24.754;2024-03-02T16:30:50;28.42;;;14.82;;
64615;SDS011;51027;42.162;24.754;2024-03-02T16:33:18;29.85;;;14.35;;
64615;SDS011;51027;42.162;24.754;2024-03-02T16:35:43;30.25;;;14.05;;
64615;SDS011;51027;42.162;24.754;2024-03-02T16:38:12;28.40;;;13.03;;
64615;SDS011;51027;42.162;24.754;2024-03-02T16:40:39;28.10;;;14.20;;
64615;SDS011;51027;42.162;24.754;2024-03-02T16:43:05;29.45;;;13.50;;
64615;SDS011;51027;42.162;24.754;2024-03-02T16:45:31;38.15;;;22.40;;
64615;SDS011;51027;42.162;24.754;2024-03-02T16:47:57;49.78;;;31.38;;
64615;SDS011;51027;42.162;24.754;2024-03-02T16:50:23;25.25;;;11.80;;
64615;SDS011;51027;42.162;24.754;2024-03-02T16:52:48;21.48;;;10.43;;
64615;SDS011;51027;42.162;24.754;2024-03-02T16:55:13;24.13;;;11.65;;
64615;SDS011;51027;42.162;24.754;2024-03-02T16:57:39;23.73;;;12.00;;
64615;SDS011;51027;42.162;24.754;2024-03-02T17:00:05;26.38;;;13.20;;
64615;SDS011;51027;42.162;24.754;2024-03-02T17:02:33;23.30;;;12.00;;
64615;SDS011;51027;42.162;24.754;2024-03-02T17:04:59;25.10;;;12.05;;
64615;SDS011;51027;42.162;24.754;2024-03-02T17:07:24;23.42;;;11.20;;
64615;SDS011;51027;42.162;24.754;2024-03-02T17:09:50;24.60;;;11.75;;
64615;SDS011;51027;42.162;24.754;2024-03-02T17:12:18;25.58;;;12.55;;
64615;SDS011;51027;42.162;24.754;2024-03-02T17:14:43;24.90;;;14.52;;
64615;SDS011;51027;42.162;24.754;2024-03-02T17:17:09;25.58;;;14.05;;
64615;SDS011;51027;42.162;24.754;2024-03-02T17:19:35;30.52;;;14.60;;
64615;SDS011;51027;42.162;24.754;2024-03-02T17:22:00;28.05;;;13.93;;
64615;SDS011;51027;42.162;24.754;2024-03-02T17:24:26;29.25;;;14.40;;
64615;SDS011;51027;42.162;24.754;2024-03-02T17:26:51;31.58;;;16.30;;
64615;SDS011;51027;42.162;24.754;2024-03-02T17:29:16;27.23;;;14.02;;
64615;SDS011;51027;42.162;24.754;2024-03-02T17:31:42;33.00;;;18.27;;
64615;SDS011;51027;42.162;24.754;2024-03-02T17:34:07;30.60;;;15.30;;
64615;SDS011;51027;42.162;24.754;2024-03-02T17:36:33;28.88;;;16.60;;
64615;SDS011;51027;42.162;24.754;2024-03-02T17:38:58;29.13;;;14.73;;
64615;SDS011;51027;42.162;24.754;2024-03-02T17:41:24;28.05;;;14.07;;
64615;SDS011;51027;42.162;24.754;2024-03-02T17:43:49;31.48;;;15.10;;
64615;SDS011;51027;42.162;24.754;2024-03-02T17:46:15;30.30;;;15.23;;
64615;SDS011;51027;42.162;24.754;2024-03-02T17:48:40;30.50;;;14.90;;
64615;SDS011;51027;42.162;24.754;2024-03-02T17:51:06;28.83;;;14.27;;
64615;SDS011;51027;42.162;24.754;2024-03-02T17:53:33;28.23;;;14.70;;
64615;SDS011;51027;42.162;24.754;2024-03-02T17:55:58;48.13;;;22.95;;
64615;SDS011;51027;42.162;24.754;2024-03-02T17:58:23;37.20;;;16.98;;
64615;SDS011;51027;42.162;24.754;2024-03-02T18:00:49;31.48;;;16.48;;
64615;SDS011;51027;42.162;24.754;2024-03-02T18:03:15;34.22;;;17.90;;
64615;SDS011;51027;42.162;24.754;2024-03-02T18:05:40;45.05;;;24.38;;
64615;SDS011;51027;42.162;24.754;2024-03-02T18:08:06;41.97;;;25.00;;
64615;SDS011;51027;42.162;24.754;2024-03-02T18:10:31;46.17;;;23.02;;
64615;SDS011;51027;42.162;24.754;2024-03-02T18:12:58;43.88;;;25.95;;
64615;SDS011;51027;42.162;24.754;2024-03-02T18:15:23;35.08;;;19.33;;
64615;SDS011;51027;42.162;24.754;2024-03-02T18:17:49;40.50;;;20.55;;
64615;SDS011;51027;42.162;24.754;2024-03-02T18:20:14;36.92;;;19.60;;
64615;SDS011;51027;42.162;24.754;2024-03-02T18:22:40;37.03;;;20.30;;
64615;SDS011;51027;42.162;24.754;2024-03-02T18:25:05;37.17;;;20.17;;
64615;SDS011;51027;42.162;24.754;2024-03-02T18:27:31;39.30;;;21.60;;
64615;SDS011;51027;42.162;24.754;2024-03-02T18:29:57;36.50;;;19.85;;
64615;SDS011;51027;42.162;24.754;2024-03-02T18:32:22;41.40;;;22.88;;
64615;SDS011;51027;42.162;24.754;2024-03-02T18:34:48;37.53;;;20.17;;
64615;SDS011;51027;42.162;24.754;2024-03-02T18:37:13;43.38;;;22.98;;
64615;SDS011;51027;42.162;24.754;2024-03-02T18:39:40;38.75;;;21.38;;
64615;SDS011;51027;42.162;24.754;2024-03-02T18:42:06;41.22;;;22.10;;
64615;SDS011;51027;42.162;24.754;2024-03-02T18:44:31;40.53;;;20.60;;
64615;SDS011;51027;42.162;24.754;2024-03-02T18:46:58;42.33;;;20.50;;
64615;SDS011;51027;42.162;24.754;2024-03-02T18:49:24;42.40;;;22.13;;